sensor_id;sensor_type;location;lat;lon;timestamp;P1;durP1;ratioP1;P2;durP2;ratioP2
31990;SDS011;18508;49.386;8.370;2023-05-16T00:02:21;46.75;;;24.35;;
31990;SDS011;18508;49.386;8.370;2023-05-16T00:04:49;46.45;;;25.02;;
31990;SDS011;18508;49.386;8.370;2023-05-16T00:07:18;48.38;;;26.08;;
31990;SDS011;18508;49.386;8.370;2023-05-16T00:09:46;48.92;;;27.45;;
31990;SDS011;18508;49.386;8.370;2023-05-16T00:12:14;50.92;;;27.70;;
31990;SDS011;18508;49.386;8.370;2023-05-16T00:14:50;50.28;;;26.17;;
31990;SDS011;18508;49.386;8.370;2023-05-16T00:17:22;50.25;;;27.45;;
31990;SDS011;18508;49.386;8.370;2023-05-16T00:19:54;54.17;;;28.48;;
31990;SDS011;18508;49.386;8.370;2023-05-16T00:22:23;56.42;;;28.45;;
31990;SDS011;18508;49.386;8.370;2023-05-16T00:24:52;64.85;;;30.88;;
31990;SDS011;18508;49.386;8.370;2023-05-16T00:27:20;54.78;;;28.75;;
31990;SDS011;18508;49.386;8.370;2023-05-16T00:29:50;57.00;;;28.40;;
31990;SDS011;18508;49.386;8.370;2023-05-16T00:32:18;58.60;;;31.02;;
31990;SDS011;18508;49.386;8.370;2023-05-16T00:34:47;60.58;;;31.52;;
31990;SDS011;18508;49.386;8.370;2023-05-16T00:37:15;59.50;;;30.08;;
31990;SDS011;18508;49.386;8.370;2023-05-16T00:39:43;58.20;;;29.45;;
31990;SDS011;18508;49.386;8.370;2023-05-16T00:42:11;57.42;;;30.40;;
31990;SDS011;18508;49.386;8.370;2023-05-16T00:44:39;64.55;;;30.80;;
31990;SDS011;18508;49.386;8.370;2023-05-16T00:47:09;63.65;;;32.38;;
31990;SDS011;18508;49.386;8.370;2023-05-16T00:49:37;62.25;;;31.92;;
31990;SDS011;18508;49.386;8.370;2023-05-16T00:52:05;61.05;;;31.55;;
31990;SDS011;18508;49.386;8.370;2023-05-16T00:54:33;59.13;;;30.33;;
31990;SDS011;18508;49.386;8.370;2023-05-16T00:57:02;58.90;;;30.42;;
31990;SDS011;18508;49.386;8.370;2023-05-16T00:59:31;59.47;;;30.25;;
31990;SDS011;18508;49.386;8.370;2023-05-16T01:02:00;68.97;;;33.55;;
31990;SDS011;18508;49.386;8.370;2023-05-16T01:04:33;63.20;;;31.55;;
31990;SDS011;18508;49.386;8.370;2023-05-16T01:07:02;65.05;;;31.08;;
31990;SDS011;18508;49.386;8.370;2023-05-16T01:09:30;63.53;;;31.42;;
31990;SDS011;18508;49.386;8.370;2023-05-16T01:12:01;57.45;;;29.75;;
31990;SDS011;18508;49.386;8.370;2023-05-16T01:14:37;62.25;;;31.50;;
31990;SDS011;18508;49.386;8.370;2023-05-16T01:17:14;59.53;;;30.67;;
31990;SDS011;18508;49.386;8.370;2023-05-16T01:19:55;64.18;;;31.92;;
31990;SDS011;18508;49.386;8.370;2023-05-16T01:22:35;57.50;;;30.17;;
31990;SDS011;18508;49.386;8.370;2023-05-16T01:25:19;62.70;;;30.02;;
31990;SDS011;18508;49.386;8.370;2023-05-16T01:27:55;60.30;;;29.85;;
31990;SDS011;18508;49.386;8.370;2023-05-16T01:30:25;59.60;;;30.95;;
31990;SDS011;18508;49.386;8.370;2023-05-16T01:32:53;61.75;;;30.73;;
31990;SDS011;18508;49.386;8.370;2023-05-16T01:35:22;56.80;;;29.85;;
31990;SDS011;18508;49.386;8.370;2023-05-16T01:37:51;63.25;;;31.98;;
31990;SDS011;18508;49.386;8.370;2023-05-16T01:40:27;62.58;;;31.13;;
31990;SDS011;18508;49.386;8.370;2023-05-16T01:43:03;61.53;;;31.65;;
31990;SDS011;18508;49.386;8.370;2023-05-16T01:45:38;63.35;;;32.08;;
31990;SDS011;18508;49.386;8.370;2023-05-16T01:48:11;59.78;;;30.67;;
31990;SDS011;18508;49.386;8.370;2023-05-16T01:50:43;60.45;;;31.42;;
31990;SDS011;18508;49.386;8.370;2023-05-16T01:53:18;59.55;;;30.33;;
31990;SDS011;18508;49.386;8.370;2023-05-16T01:55:50;64.65;;;31.85;;
31990;SDS011;18508;49.386;8.370;2023-05-16T01:58:21;62.95;;;30.52;;
31990;SDS011;18508;49.386;8.370;2023-05-16T02:03:23;54.95;;;28.55;;
31990;SDS011;18508;49.386;8.370;2023-05-16T02:05:53;58.45;;;30.13;;
31990;SDS011;18508;49.386;8.370;2023-05-16T02:08:21;57.95;;;29.33;;
31990;SDS011;18508;49.386;8.370;2023-05-16T02:10:50;55.63;;;28.63;;
31990;SDS011;18508;49.386;8.370;2023-05-16T02:13:18;58.83;;;30.15;;
31990;SDS011;18508;49.386;8.370;2023-05-16T02:15:48;56.75;;;28.05;;
31990;SDS011;18508;49.386;8.370;2023-05-16T02:18:16;55.53;;;28.33;;
31990;SDS011;18508;49.386;8.370;2023-05-16T02:20:45;55.67;;;28.45;;
31990;SDS011;18508;49.386;8.370;2023-05-16T02:23:13;57.25;;;28.13;;
31990;SDS011;18508;49.386;8.370;2023-05-16T02:25:45;56.87;;;27.70;;
31990;SDS011;18508;49.386;8.370;2023-05-16T02:28:13;54.95;;;27.20;;
31990;SDS011;18508;49.386;8.370;2023-05-16T02:30:42;52.55;;;27.20;;
31990;SDS011;18508;49.386;8.370;2023-05-16T02:33:10;59.15;;;28.88;;
31990;SDS011;18508;49.386;8.370;2023-05-16T02:35:39;56.17;;;28.20;;
31990;SDS011;18508;49.386;8.370;2023-05-16T02:38:07;57.00;;;28.38;;
31990;SDS011;18508;49.386;8.370;2023-05-16T02:40:35;52.53;;;26.08;;
31990;SDS011;18508;49.386;8.370;2023-05-16T02:43:03;55.72;;;26.98;;
31990;SDS011;18508;49.386;8.370;2023-05-16T02:45:31;53.13;;;27.33;;
31990;SDS011;18508;49.386;8.370;2023-05-16T02:48:00;57.65;;;27.40;;
31990;SDS011;18508;49.386;8.370;2023-05-16T02:50:29;55.78;;;26.80;;
31990;SDS011;18508;49.386;8.370;2023-05-16T02:52:57;53.70;;;25.83;;
31990;SDS011;18508;49.386;8.370;2023-05-16T02:55:27;50.42;;;25.48;;
31990;SDS011;18508;49.386;8.370;2023-05-16T02:57:55;55.10;;;27.52;;
31990;SDS011;18508;49.386;8.370;2023-05-16T03:00:24;52.83;;;27.10;;
31990;SDS011;18508;49.386;8.370;2023-05-16T03:02:52;51.35;;;25.15;;
31990;SDS011;18508;49.386;8.370;2023-05-16T03:05:21;58.30;;;27.95;;
31990;SDS011;18508;49.386;8.370;2023-05-16T03:07:52;49.05;;;24.45;;
31990;SDS011;18508;49.386;8.370;2023-05-16T03:10:23;53.78;;;26.85;;
31990;SDS011;18508;49.386;8.370;2023-05-16T03:12:51;48.25;;;25.02;;
31990;SDS011;18508;49.386;8.370;2023-05-16T03:15:19;49.15;;;25.00;;
31990;SDS011;18508;49.386;8.370;2023-05-16T03:17:47;52.38;;;25.55;;
31990;SDS011;18508;49.386;8.370;2023-05-16T03:20:20;49.80;;;24.73;;
31990;SDS011;18508;49.386;8.370;2023-05-16T03:22:49;49.00;;;23.33;;
31990;SDS011;18508;49.386;8.370;2023-05-16T03:25:17;52.30;;;24.08;;
31990;SDS011;18508;49.386;8.370;2023-05-16T03:27:45;50.67;;;22.67;;
31990;SDS011;18508;49.386;8.370;2023-05-16T03:30:13;46.03;;;22.42;;
31990;SDS011;18508;49.386;8.370;2023-05-16T03:32:43;54.97;;;24.00;;
31990;SDS011;18508;49.386;8.370;2023-05-16T03:35:12;50.05;;;22.75;;
31990;SDS011;18508;49.386;8.370;2023-05-16T03:37:41;42.70;;;19.98;;
31990;SDS011;18508;49.386;8.370;2023-05-16T03:40:10;41.88;;;20.70;;
31990;SDS011;18508;49.386;8.370;2023-05-16T03:42:39;43.88;;;20.67;;
31990;SDS011;18508;49.386;8.370;2023-05-16T03:45:10;46.80;;;21.73;;
31990;SDS011;18508;49.386;8.370;2023-05-16T03:47:38;43.22;;;20.02;;
31990;SDS011;18508;49.386;8.370;2023-05-16T03:50:07;39.40;;;18.98;;
31990;SDS011;18508;49.386;8.370;2023-05-16T03:52:36;48.38;;;20.00;;
31990;SDS011;18508;49.386;8.370;2023-05-16T03:55:07;40.70;;;18.48;;
31990;SDS011;18508;49.386;8.370;2023-05-16T03:57:36;34.53;;;17.35;;
31990;SDS011;18508;49.386;8.370;2023-05-16T04:00:04;40.40;;;19.13;;
31990;SDS011;18508;49.386;8.370;2023-05-16T04:02:34;41.50;;;19.83;;
31990;SDS011;18508;49.386;8.370;2023-05-16T04:05:02;40.67;;;18.90;;
31990;SDS011;18508;49.386;8.370;2023-05-16T04:07:31;42.20;;;19.75;;
31990;SDS011;18508;49.386;8.370;2023-05-16T04:09:59;46.08;;;20.25;;
31990;SDS011;18508;49.386;8.370;2023-05-16T04:12:29;44.60;;;20.27;;
31990;SDS011;18508;49.386;8.370;2023-05-16T04:14:57;39.90;;;18.25;;
31990;SDS011;18508;49.386;8.370;2023-05-16T04:17:29;35.72;;;16.92;;
31990;SDS011;18508;49.386;8.370;2023-05-16T04:19:57;39.03;;;18.60;;
31990;SDS011;18508;49.386;8.370;2023-05-16T04:22:26;43.15;;;18.20;;
31990;SDS011;18508;49.386;8.370;2023-05-16T04:24:54;40.95;;;18.38;;
31990;SDS011;18508;49.386;8.370;2023-05-16T04:27:22;40.38;;;17.63;;
31990;SDS011;18508;49.386;8.370;2023-05-16T04:29:57;38.22;;;18.95;;
31990;SDS011;18508;49.386;8.370;2023-05-16T04:32:25;40.92;;;18.13;;
31990;SDS011;18508;49.386;8.370;2023-05-16T04:34:54;39.78;;;17.42;;
31990;SDS011;18508;49.386;8.370;2023-05-16T04:37:22;34.95;;;16.67;;
31990;SDS011;18508;49.386;8.370;2023-05-16T04:39:50;35.38;;;15.25;;
31990;SDS011;18508;49.386;8.370;2023-05-16T04:42:20;37.42;;;16.13;;
31990;SDS011;18508;49.386;8.370;2023-05-16T04:44:49;33.70;;;15.63;;
31990;SDS011;18508;49.386;8.370;2023-05-16T04:47:20;31.52;;;14.68;;
31990;SDS011;18508;49.386;8.370;2023-05-16T04:49:48;25.67;;;12.63;;
31990;SDS011;18508;49.386;8.370;2023-05-16T04:52:16;30.88;;;12.05;;
31990;SDS011;18508;49.386;8.370;2023-05-16T04:54:44;22.90;;;11.75;;
31990;SDS011;18508;49.386;8.370;2023-05-16T04:57:12;25.60;;;12.18;;
31990;SDS011;18508;49.386;8.370;2023-05-16T04:59:40;21.20;;;10.07;;
31990;SDS011;18508;49.386;8.370;2023-05-16T05:02:09;25.25;;;11.52;;
31990;SDS011;18508;49.386;8.370;2023-05-16T05:04:42;20.42;;;10.02;;
31990;SDS011;18508;49.386;8.370;2023-05-16T05:07:14;21.52;;;10.73;;
31990;SDS011;18508;49.386;8.370;2023-05-16T05:09:42;20.48;;;9.52;;
31990;SDS011;18508;49.386;8.370;2023-05-16T05:12:09;19.85;;;9.50;;
31990;SDS011;18508;49.386;8.370;2023-05-16T05:14:38;20.00;;;9.52;;
31990;SDS011;18508;49.386;8.370;2023-05-16T05:17:07;19.60;;;9.43;;
31990;SDS011;18508;49.386;8.370;2023-05-16T05:19:35;19.70;;;9.93;;
31990;SDS011;18508;49.386;8.370;2023-05-16T05:22:05;19.02;;;8.75;;
31990;SDS011;18508;49.386;8.370;2023-05-16T05:24:33;17.65;;;7.40;;
31990;SDS011;18508;49.386;8.370;2023-05-16T05:27:01;13.45;;;7.05;;
31990;SDS011;18508;49.386;8.370;2023-05-16T05:29:29;13.32;;;7.65;;
31990;SDS011;18508;49.386;8.370;2023-05-16T05:31:57;11.75;;;5.53;;
31990;SDS011;18508;49.386;8.370;2023-05-16T05:34:26;10.90;;;5.70;;
31990;SDS011;18508;49.386;8.370;2023-05-16T05:36:54;8.25;;;4.38;;
31990;SDS011;18508;49.386;8.370;2023-05-16T05:39:24;8.23;;;4.15;;
31990;SDS011;18508;49.386;8.370;2023-05-16T05:41:56;8.00;;;3.95;;
31990;SDS011;18508;49.386;8.370;2023-05-16T05:44:29;6.93;;;3.38;;
31990;SDS011;18508;49.386;8.370;2023-05-16T05:46:57;6.15;;;3.38;;
31990;SDS011;18508;49.386;8.370;2023-05-16T05:49:25;7.00;;;3.08;;
31990;SDS011;18508;49.386;8.370;2023-05-16T05:51:54;4.75;;;2.60;;
31990;SDS011;18508;49.386;8.370;2023-05-16T05:54:22;6.10;;;2.95;;
31990;SDS011;18508;49.386;8.370;2023-05-16T05:56:51;6.53;;;2.88;;
31990;SDS011;18508;49.386;8.370;2023-05-16T05:59:19;6.03;;;2.42;;
31990;SDS011;18508;49.386;8.370;2023-05-16T06:01:48;4.00;;;2.10;;
31990;SDS011;18508;49.386;8.370;2023-05-16T06:04:18;5.63;;;2.28;;
31990;SDS011;18508;49.386;8.370;2023-05-16T06:06:46;6.88;;;3.28;;
31990;SDS011;18508;49.386;8.370;2023-05-16T06:09:15;5.15;;;1.95;;
31990;SDS011;18508;49.386;8.370;2023-05-16T06:11:44;3.83;;;2.30;;
31990;SDS011;18508;49.386;8.370;2023-05-16T06:14:14;6.15;;;1.95;;
31990;SDS011;18508;49.386;8.370;2023-05-16T06:16:42;4.68;;;1.95;;
31990;SDS011;18508;49.386;8.370;2023-05-16T06:19:10;3.63;;;1.90;;
31990;SDS011;18508;49.386;8.370;2023-05-16T06:21:41;4.28;;;2.13;;
31990;SDS011;18508;49.386;8.370;2023-05-16T06:24:09;3.08;;;2.03;;
31990;SDS011;18508;49.386;8.370;2023-05-16T06:26:37;4.22;;;2.20;;
31990;SDS011;18508;49.386;8.370;2023-05-16T06:29:07;3.58;;;1.73;;
31990;SDS011;18508;49.386;8.370;2023-05-16T06:31:36;4.60;;;2.00;;
31990;SDS011;18508;49.386;8.370;2023-05-16T06:34:05;3.97;;;1.65;;
31990;SDS011;18508;49.386;8.370;2023-05-16T06:36:33;3.00;;;1.58;;
31990;SDS011;18508;49.386;8.370;2023-05-16T06:39:01;3.00;;;1.42;;
31990;SDS011;18508;49.386;8.370;2023-05-16T06:41:30;3.28;;;1.48;;
31990;SDS011;18508;49.386;8.370;2023-05-16T06:43:59;2.90;;;1.60;;
31990;SDS011;18508;49.386;8.370;2023-05-16T06:46:31;3.20;;;1.85;;
31990;SDS011;18508;49.386;8.370;2023-05-16T06:49:01;3.75;;;1.70;;
31990;SDS011;18508;49.386;8.370;2023-05-16T06:51:29;2.65;;;1.40;;
31990;SDS011;18508;49.386;8.370;2023-05-16T06:53:57;2.83;;;1.45;;
31990;SDS011;18508;49.386;8.370;2023-05-16T06:56:29;3.28;;;1.60;;
31990;SDS011;18508;49.386;8.370;2023-05-16T06:58:58;2.67;;;1.38;;
31990;SDS011;18508;49.386;8.370;2023-05-16T07:01:27;2.15;;;1.20;;
31990;SDS011;18508;49.386;8.370;2023-05-16T07:03:55;2.67;;;1.35;;
31990;SDS011;18508;49.386;8.370;2023-05-16T07:06:25;2.38;;;1.30;;
31990;SDS011;18508;49.386;8.370;2023-05-16T07:08:54;2.30;;;1.40;;
31990;SDS011;18508;49.386;8.370;2023-05-16T07:11:26;3.60;;;1.40;;
31990;SDS011;18508;49.386;8.370;2023-05-16T07:13:54;1.88;;;1.00;;
31990;SDS011;18508;49.386;8.370;2023-05-16T07:16:22;3.42;;;1.80;;
31990;SDS011;18508;49.386;8.370;2023-05-16T07:18:54;2.28;;;1.20;;
31990;SDS011;18508;49.386;8.370;2023-05-16T07:21:22;2.58;;;1.10;;
31990;SDS011;18508;49.386;8.370;2023-05-16T07:23:51;1.45;;;1.08;;
31990;SDS011;18508;49.386;8.370;2023-05-16T07:26:19;1.70;;;1.00;;
31990;SDS011;18508;49.386;8.370;2023-05-16T07:28:48;1.80;;;0.93;;
31990;SDS011;18508;49.386;8.370;2023-05-16T07:31:18;2.15;;;1.02;;
31990;SDS011;18508;49.386;8.370;2023-05-16T07:33:46;2.70;;;1.25;;
31990;SDS011;18508;49.386;8.370;2023-05-16T07:36:15;1.88;;;0.90;;
31990;SDS011;18508;49.386;8.370;2023-05-16T07:38:44;1.55;;;0.98;;
31990;SDS011;18508;49.386;8.370;2023-05-16T07:41:13;2.55;;;0.75;;
31990;SDS011;18508;49.386;8.370;2023-05-16T07:43:41;1.90;;;0.90;;
31990;SDS011;18508;49.386;8.370;2023-05-16T07:46:10;1.88;;;0.85;;
31990;SDS011;18508;49.386;8.370;2023-05-16T07:48:40;1.63;;;0.85;;
31990;SDS011;18508;49.386;8.370;2023-05-16T07:51:09;1.98;;;1.10;;
31990;SDS011;18508;49.386;8.370;2023-05-16T07:53:37;3.03;;;1.33;;
31990;SDS011;18508;49.386;8.370;2023-05-16T07:56:06;1.90;;;1.10;;
31990;SDS011;18508;49.386;8.370;2023-05-16T07:58:36;3.22;;;0.90;;
31990;SDS011;18508;49.386;8.370;2023-05-16T08:01:05;2.47;;;1.00;;
31990;SDS011;18508;49.386;8.370;2023-05-16T08:03:34;2.60;;;1.20;;
31990;SDS011;18508;49.386;8.370;2023-05-16T08:06:05;2.00;;;1.00;;
31990;SDS011;18508;49.386;8.370;2023-05-16T08:08:33;1.90;;;1.02;;
31990;SDS011;18508;49.386;8.370;2023-05-16T08:11:02;2.60;;;1.10;;
31990;SDS011;18508;49.386;8.370;2023-05-16T08:13:31;2.03;;;1.00;;
31990;SDS011;18508;49.386;8.370;2023-05-16T08:16:01;2.38;;;0.95;;
31990;SDS011;18508;49.386;8.370;2023-05-16T08:18:30;2.33;;;1.17;;
31990;SDS011;18508;49.386;8.370;2023-05-16T08:20:58;2.75;;;1.30;;
31990;SDS011;18508;49.386;8.370;2023-05-16T08:23:26;1.27;;;0.77;;
31990;SDS011;18508;49.386;8.370;2023-05-16T08:25:54;1.40;;;0.90;;
31990;SDS011;18508;49.386;8.370;2023-05-16T08:28:23;2.47;;;1.02;;
31990;SDS011;18508;49.386;8.370;2023-05-16T08:30:52;1.63;;;0.82;;
31990;SDS011;18508;49.386;8.370;2023-05-16T08:33:23;1.75;;;1.00;;
31990;SDS011;18508;49.386;8.370;2023-05-16T08:35:51;3.25;;;1.00;;
31990;SDS011;18508;49.386;8.370;2023-05-16T08:38:23;1.50;;;0.80;;
31990;SDS011;18508;49.386;8.370;2023-05-16T08:40:51;1.65;;;0.77;;
31990;SDS011;18508;49.386;8.370;2023-05-16T08:43:20;2.88;;;0.82;;
31990;SDS011;18508;49.386;8.370;2023-05-16T08:45:48;1.42;;;0.60;;
31990;SDS011;18508;49.386;8.370;2023-05-16T08:48:16;1.80;;;0.80;;
31990;SDS011;18508;49.386;8.370;2023-05-16T08:50:50;1.42;;;0.88;;
31990;SDS011;18508;49.386;8.370;2023-05-16T08:53:20;2.70;;;0.70;;
31990;SDS011;18508;49.386;8.370;2023-05-16T08:55:51;1.05;;;0.70;;
31990;SDS011;18508;49.386;8.370;2023-05-16T08:58:20;2.40;;;0.70;;
31990;SDS011;18508;49.386;8.370;2023-05-16T09:00:49;4.50;;;0.70;;
31990;SDS011;18508;49.386;8.370;2023-05-16T09:03:17;0.88;;;0.57;;
31990;SDS011;18508;49.386;8.370;2023-05-16T09:08:19;1.20;;;0.60;;
31990;SDS011;18508;49.386;8.370;2023-05-16T09:10:48;1.27;;;0.50;;
31990;SDS011;18508;49.386;8.370;2023-05-16T09:13:16;0.73;;;0.55;;
31990;SDS011;18508;49.386;8.370;2023-05-16T09:15:49;1.48;;;0.68;;
31990;SDS011;18508;49.386;8.370;2023-05-16T09:18:36;1.00;;;0.47;;
31990;SDS011;18508;49.386;8.370;2023-05-16T09:21:07;1.33;;;0.65;;
31990;SDS011;18508;49.386;8.370;2023-05-16T09:23:38;2.13;;;0.50;;
31990;SDS011;18508;49.386;8.370;2023-05-16T09:26:08;1.92;;;0.77;;
31990;SDS011;18508;49.386;8.370;2023-05-16T09:28:36;1.25;;;0.52;;
31990;SDS011;18508;49.386;8.370;2023-05-16T09:31:18;1.88;;;0.50;;
31990;SDS011;18508;49.386;8.370;2023-05-16T09:33:47;2.03;;;0.50;;
31990;SDS011;18508;49.386;8.370;2023-05-16T09:36:17;0.90;;;0.60;;
31990;SDS011;18508;49.386;8.370;2023-05-16T09:38:46;0.47;;;0.35;;
31990;SDS011;18508;49.386;8.370;2023-05-16T09:41:14;0.85;;;0.30;;
31990;SDS011;18508;49.386;8.370;2023-05-16T09:43:43;0.82;;;0.52;;
31990;SDS011;18508;49.386;8.370;2023-05-16T09:46:11;0.98;;;0.40;;
31990;SDS011;18508;49.386;8.370;2023-05-16T09:48:41;0.85;;;0.38;;
31990;SDS011;18508;49.386;8.370;2023-05-16T09:51:12;0.47;;;0.30;;
31990;SDS011;18508;49.386;8.370;2023-05-16T09:53:42;0.60;;;0.30;;
31990;SDS011;18508;49.386;8.370;2023-05-16T09:56:12;1.40;;;0.40;;
31990;SDS011;18508;49.386;8.370;2023-05-16T09:58:43;0.88;;;0.30;;
31990;SDS011;18508;49.386;8.370;2023-05-16T10:01:13;1.02;;;0.45;;
31990;SDS011;18508;49.386;8.370;2023-05-16T10:03:41;1.02;;;0.47;;
31990;SDS011;18508;49.386;8.370;2023-05-16T10:06:11;1.90;;;0.40;;
31990;SDS011;18508;49.386;8.370;2023-05-16T10:08:43;2.55;;;0.47;;
31990;SDS011;18508;49.386;8.370;2023-05-16T10:11:12;1.75;;;0.60;;
31990;SDS011;18508;49.386;8.370;2023-05-16T10:13:41;2.95;;;0.50;;
31990;SDS011;18508;49.386;8.370;2023-05-16T10:16:15;0.98;;;0.57;;
31990;SDS011;18508;49.386;8.370;2023-05-16T10:18:45;0.50;;;0.40;;
31990;SDS011;18508;49.386;8.370;2023-05-16T10:21:14;1.05;;;0.50;;
31990;SDS011;18508;49.386;8.370;2023-05-16T10:23:46;1.33;;;0.50;;
31990;SDS011;18508;49.386;8.370;2023-05-16T10:28:44;0.90;;;0.45;;
31990;SDS011;18508;49.386;8.370;2023-05-16T10:31:14;0.40;;;0.32;;
31990;SDS011;18508;49.386;8.370;2023-05-16T10:33:42;1.08;;;0.40;;
31990;SDS011;18508;49.386;8.370;2023-05-16T10:36:12;0.90;;;0.47;;
31990;SDS011;18508;49.386;8.370;2023-05-16T10:38:41;0.98;;;0.40;;
31990;SDS011;18508;49.386;8.370;2023-05-16T10:41:13;1.55;;;0.55;;
31990;SDS011;18508;49.386;8.370;2023-05-16T10:43:44;1.00;;;0.50;;
31990;SDS011;18508;49.386;8.370;2023-05-16T10:46:22;0.75;;;0.40;;
31990;SDS011;18508;49.386;8.370;2023-05-16T10:48:51;0.70;;;0.60;;
31990;SDS011;18508;49.386;8.370;2023-05-16T10:51:32;2.47;;;0.52;;
31990;SDS011;18508;49.386;8.370;2023-05-16T10:54:05;1.83;;;0.50;;
31990;SDS011;18508;49.386;8.370;2023-05-16T10:56:37;0.57;;;0.40;;
31990;SDS011;18508;49.386;8.370;2023-05-16T10:59:21;1.70;;;0.60;;
31990;SDS011;18508;49.386;8.370;2023-05-16T11:01:54;1.05;;;0.50;;
31990;SDS011;18508;49.386;8.370;2023-05-16T11:04:36;1.23;;;0.80;;
31990;SDS011;18508;49.386;8.370;2023-05-16T11:07:12;2.90;;;0.90;;
31990;SDS011;18508;49.386;8.370;2023-05-16T11:09:42;1.30;;;0.80;;
31990;SDS011;18508;49.386;8.370;2023-05-16T11:12:13;4.75;;;0.93;;
31990;SDS011;18508;49.386;8.370;2023-05-16T11:14:41;1.30;;;0.82;;
31990;SDS011;18508;49.386;8.370;2023-05-16T11:17:13;3.83;;;1.15;;
31990;SDS011;18508;49.386;8.370;2023-05-16T11:19:43;5.55;;;1.63;;
31990;SDS011;18508;49.386;8.370;2023-05-16T11:22:12;2.47;;;1.17;;
31990;SDS011;18508;49.386;8.370;2023-05-16T11:24:50;2.78;;;1.42;;
31990;SDS011;18508;49.386;8.370;2023-05-16T11:27:22;4.30;;;1.27;;
31990;SDS011;18508;49.386;8.370;2023-05-16T11:30:01;3.00;;;1.60;;
31990;SDS011;18508;49.386;8.370;2023-05-16T11:32:40;3.17;;;1.60;;
31990;SDS011;18508;49.386;8.370;2023-05-16T11:35:10;3.75;;;1.75;;
31990;SDS011;18508;49.386;8.370;2023-05-16T11:37:40;3.85;;;1.60;;
31990;SDS011;18508;49.386;8.370;2023-05-16T11:40:10;3.25;;;1.55;;
31990;SDS011;18508;49.386;8.370;2023-05-16T11:42:41;4.70;;;1.70;;
31990;SDS011;18508;49.386;8.370;2023-05-16T11:45:11;5.43;;;2.03;;
31990;SDS011;18508;49.386;8.370;2023-05-16T11:47:45;7.55;;;1.92;;
31990;SDS011;18508;49.386;8.370;2023-05-16T11:50:16;9.63;;;2.00;;
31990;SDS011;18508;49.386;8.370;2023-05-16T11:52:46;5.25;;;2.05;;
31990;SDS011;18508;49.386;8.370;2023-05-16T11:55:15;3.00;;;1.52;;
31990;SDS011;18508;49.386;8.370;2023-05-16T11:58:06;4.78;;;1.98;;
31990;SDS011;18508;49.386;8.370;2023-05-16T12:00:43;6.40;;;2.05;;
31990;SDS011;18508;49.386;8.370;2023-05-16T12:03:15;10.05;;;2.40;;
31990;SDS011;18508;49.386;8.370;2023-05-16T12:05:49;5.35;;;2.08;;
31990;SDS011;18508;49.386;8.370;2023-05-16T12:08:20;8.05;;;1.98;;
31990;SDS011;18508;49.386;8.370;2023-05-16T12:10:52;7.20;;;2.13;;
31990;SDS011;18508;49.386;8.370;2023-05-16T12:13:23;5.97;;;2.55;;
31990;SDS011;18508;49.386;8.370;2023-05-16T12:15:52;6.65;;;2.75;;
31990;SDS011;18508;49.386;8.370;2023-05-16T12:18:20;6.82;;;2.00;;
31990;SDS011;18508;49.386;8.370;2023-05-16T12:20:51;6.63;;;2.03;;
31990;SDS011;18508;49.386;8.370;2023-05-16T12:23:19;5.15;;;1.80;;
31990;SDS011;18508;49.386;8.370;2023-05-16T12:25:47;7.35;;;1.70;;
31990;SDS011;18508;49.386;8.370;2023-05-16T12:28:16;8.32;;;2.28;;
31990;SDS011;18508;49.386;8.370;2023-05-16T12:30:53;10.15;;;1.75;;
31990;SDS011;18508;49.386;8.370;2023-05-16T12:35:52;11.23;;;2.38;;
31990;SDS011;18508;49.386;8.370;2023-05-16T12:38:20;8.48;;;2.10;;
31990;SDS011;18508;49.386;8.370;2023-05-16T12:40:56;6.85;;;1.73;;
31990;SDS011;18508;49.386;8.370;2023-05-16T12:45:55;4.63;;;1.65;;
31990;SDS011;18508;49.386;8.370;2023-05-16T12:48:31;4.18;;;1.92;;
31990;SDS011;18508;49.386;8.370;2023-05-16T12:51:10;5.88;;;1.27;;
31990;SDS011;18508;49.386;8.370;2023-05-16T12:53:40;4.55;;;1.85;;
31990;SDS011;18508;49.386;8.370;2023-05-16T12:56:27;6.60;;;1.33;;
31990;SDS011;18508;49.386;8.370;2023-05-16T12:58:55;5.50;;;1.90;;
31990;SDS011;18508;49.386;8.370;2023-05-16T13:01:26;7.20;;;1.60;;
31990;SDS011;18508;49.386;8.370;2023-05-16T13:06:29;6.65;;;1.48;;
31990;SDS011;18508;49.386;8.370;2023-05-16T13:09:14;9.77;;;1.65;;
31990;SDS011;18508;49.386;8.370;2023-05-16T13:11:43;8.45;;;1.42;;
31990;SDS011;18508;49.386;8.370;2023-05-16T13:14:12;7.65;;;1.98;;
31990;SDS011;18508;49.386;8.370;2023-05-16T13:16:42;8.52;;;2.17;;
31990;SDS011;18508;49.386;8.370;2023-05-16T13:19:10;7.63;;;1.50;;
31990;SDS011;18508;49.386;8.370;2023-05-16T13:21:39;4.57;;;1.15;;
31990;SDS011;18508;49.386;8.370;2023-05-16T13:24:07;5.60;;;1.58;;
31990;SDS011;18508;49.386;8.370;2023-05-16T13:26:35;4.60;;;1.15;;
31990;SDS011;18508;49.386;8.370;2023-05-16T13:29:03;3.88;;;1.38;;
31990;SDS011;18508;49.386;8.370;2023-05-16T13:31:31;3.55;;;1.13;;
31990;SDS011;18508;49.386;8.370;2023-05-16T13:34:01;6.05;;;1.30;;
31990;SDS011;18508;49.386;8.370;2023-05-16T13:36:33;10.00;;;1.58;;
31990;SDS011;18508;49.386;8.370;2023-05-16T13:39:19;8.35;;;1.20;;
31990;SDS011;18508;49.386;8.370;2023-05-16T13:41:47;8.45;;;1.45;;
31990;SDS011;18508;49.386;8.370;2023-05-16T13:44:16;5.03;;;1.30;;
31990;SDS011;18508;49.386;8.370;2023-05-16T13:46:44;7.05;;;1.42;;
31990;SDS011;18508;49.386;8.370;2023-05-16T13:49:14;5.82;;;1.58;;
31990;SDS011;18508;49.386;8.370;2023-05-16T13:51:42;7.57;;;1.30;;
31990;SDS011;18508;49.386;8.370;2023-05-16T13:54:10;2.65;;;1.05;;
31990;SDS011;18508;49.386;8.370;2023-05-16T13:56:39;4.95;;;1.30;;
31990;SDS011;18508;49.386;8.370;2023-05-16T13:59:07;5.40;;;1.48;;
31990;SDS011;18508;49.386;8.370;2023-05-16T14:01:41;6.50;;;1.70;;
31990;SDS011;18508;49.386;8.370;2023-05-16T14:04:10;4.60;;;1.73;;
31990;SDS011;18508;49.386;8.370;2023-05-16T14:06:39;8.65;;;2.05;;
31990;SDS011;18508;49.386;8.370;2023-05-16T14:09:07;7.68;;;1.50;;
31990;SDS011;18508;49.386;8.370;2023-05-16T14:11:36;5.65;;;1.40;;
31990;SDS011;18508;49.386;8.370;2023-05-16T14:14:04;7.15;;;1.38;;
31990;SDS011;18508;49.386;8.370;2023-05-16T14:16:32;6.22;;;1.10;;
31990;SDS011;18508;49.386;8.370;2023-05-16T14:19:01;4.05;;;1.27;;
31990;SDS011;18508;49.386;8.370;2023-05-16T14:21:29;4.10;;;1.25;;
31990;SDS011;18508;49.386;8.370;2023-05-16T14:24:02;4.95;;;1.30;;
31990;SDS011;18508;49.386;8.370;2023-05-16T14:26:30;4.93;;;1.55;;
31990;SDS011;18508;49.386;8.370;2023-05-16T14:29:02;7.28;;;1.52;;
31990;SDS011;18508;49.386;8.370;2023-05-16T14:31:30;6.22;;;1.58;;
31990;SDS011;18508;49.386;8.370;2023-05-16T14:33:59;4.07;;;1.05;;
31990;SDS011;18508;49.386;8.370;2023-05-16T14:36:27;4.13;;;1.52;;
31990;SDS011;18508;49.386;8.370;2023-05-16T14:38:58;6.40;;;1.30;;
31990;SDS011;18508;49.386;8.370;2023-05-16T14:41:26;2.92;;;1.20;;
31990;SDS011;18508;49.386;8.370;2023-05-16T14:43:54;4.05;;;1.05;;
31990;SDS011;18508;49.386;8.370;2023-05-16T14:46:23;6.65;;;1.33;;
31990;SDS011;18508;49.386;8.370;2023-05-16T14:48:51;4.72;;;1.48;;
31990;SDS011;18508;49.386;8.370;2023-05-16T14:51:21;4.20;;;1.27;;
31990;SDS011;18508;49.386;8.370;2023-05-16T14:53:49;4.18;;;0.90;;
31990;SDS011;18508;49.386;8.370;2023-05-16T14:56:19;3.67;;;1.10;;
31990;SDS011;18508;49.386;8.370;2023-05-16T14:58:47;5.13;;;1.23;;
31990;SDS011;18508;49.386;8.370;2023-05-16T15:01:15;4.78;;;0.90;;
31990;SDS011;18508;49.386;8.370;2023-05-16T15:03:44;6.55;;;1.45;;
31990;SDS011;18508;49.386;8.370;2023-05-16T15:06:20;2.75;;;0.82;;
31990;SDS011;18508;49.386;8.370;2023-05-16T15:08:49;2.92;;;0.80;;
31990;SDS011;18508;49.386;8.370;2023-05-16T15:11:17;3.33;;;0.90;;